Time;durP1;ratioP1;P1;durP2;ratioP2;P2;SDS_P1;SDS_P2;PMS_P1;PMS_P2;Temp;Humidity;BMP_temperature;BMP_pressure;BME280_temperature;BME280_humidity;BME280_pressure;Samples;Min_cycle;Max_cycle;Signal;HPM_P1;HPM_P2
2023/10/16 00:01:27;;;;;;;0.93;0.90;;;;;;;15.80;60.59;99916.72;5040008;28;20556;-85
2023/10/16 00:04:11;;;;;;;3.33;1.25;;;;;;;16.13;60.34;99924.63;5039646;28;20044;-84
2023/10/16 00:07:00;;;;;;;2.33;1.10;;;;;;;16.02;60.30;99927.91;5040702;28;20052;-86
2023/10/16 00:09:44;;;;;;;2.88;0.88;;;;;;;16.08;60.08;99921.75;5038064;28;20094;-84
2023/10/16 00:12:29;;;;;;;1.83;0.90;;;;;;;16.08;59.90;99929.72;5039137;28;20132;-84
2023/10/16 00:15:16;;;;;;;3.92;1.00;;;;;;;16.22;59.61;99927.03;5037681;28;20048;-83
2023/10/16 00:18:01;;;;;;;3.10;1.10;;;;;;;16.17;59.45;99913.59;5041781;28;20048;-84
2023/10/16 00:20:45;;;;;;;3.38;1.10;;;;;;;16.18;59.41;99912.56;5037592;28;20044;-84
2023/10/16 00:23:37;;;;;;;2.60;1.02;;;;;;;16.30;58.99;99910.88;5040238;28;20040;-84
2023/10/16 00:26:21;;;;;;;1.27;1.05;;;;;;;16.18;59.51;99917.88;5040931;28;20560;-85
2023/10/16 00:29:17;;;;;;;2.15;1.02;;;;;;;15.91;59.66;99902.88;5038985;28;20504;-83
2023/10/16 00:32:07;;;;;;;0.82;0.82;;;;;;;16.06;59.50;99907.91;5035600;28;20130;-85
2023/10/16 00:34:52;;;;;;;1.38;1.08;;;;;;;16.19;59.32;99906.25;5038183;28;20757;-83
2023/10/16 00:37:36;;;;;;;2.65;1.00;;;;;;;16.01;59.78;99913.03;5039373;28;20132;-84
2023/10/16 00:40:32;;;;;;;2.08;0.98;;;;;;;15.94;59.67;99904.31;5040625;28;20497;-83
2023/10/16 00:43:17;;;;;;;3.33;1.30;;;;;;;15.97;60.01;99907.34;5035934;28;20060;-84
2023/10/16 00:46:08;;;;;;;3.30;1.00;;;;;;;15.80;60.03;99906.97;5037788;28;20039;-82
2023/10/16 00:48:53;;;;;;;4.45;1.10;;;;;;;15.92;59.64;99906.34;5035159;28;20063;-82
2023/10/16 00:51:40;;;;;;;4.53;1.00;;;;;;;15.81;60.02;99902.47;5040236;28;20201;-85
2023/10/16 00:54:30;;;;;;;2.58;1.00;;;;;;;15.87;60.02;99900.81;5043825;28;20135;-83
2023/10/16 00:57:15;;;;;;;2.17;0.88;;;;;;;15.75;60.12;99898.84;5040588;28;20044;-86
2023/10/16 00:59:59;;;;;;;1.15;0.90;;;;;;;16.01;59.80;99906.91;5037433;28;20112;-85
2023/10/16 01:02:43;;;;;;;2.17;0.85;;;;;;;16.02;59.43;99898.78;5037384;28;20450;-86
2023/10/16 01:05:29;;;;;;;3.10;1.23;;;;;;;15.96;59.83;99894.31;5048364;28;20059;-83
2023/10/16 01:08:17;;;;;;;1.33;0.90;;;;;;;15.84;60.09;99908.16;5047735;28;20048;-82
2023/10/16 01:11:01;;;;;;;0.88;0.88;;;;;;;15.70;59.82;99907.38;5046897;28;20095;-84
2023/10/16 01:13:50;;;;;;;2.10;1.38;;;;;;;15.41;60.65;99903.34;5037442;28;20052;-85
2023/10/16 01:16:34;;;;;;;4.28;1.30;;;;;;;15.60;60.32;99912.28;5038156;28;20087;-82
2023/10/16 01:19:22;;;;;;;1.00;0.90;;;;;;;16.20;59.05;99905.22;5039176;28;20110;-81
2023/10/16 01:22:11;;;;;;;4.68;1.02;;;;;;;15.84;59.61;99907.38;5040844;28;20047;-82
2023/10/16 01:24:59;;;;;;;3.50;1.10;;;;;;;15.87;59.67;99914.06;5048865;28;20102;-82
2023/10/16 01:27:44;;;;;;;3.17;1.73;;;;;;;16.04;59.52;99906.53;5045128;28;20041;-83
2023/10/16 01:30:27;;;;;;;3.70;1.00;;;;;;;15.92;59.53;99903.72;5040307;28;20091;-82
2023/10/16 01:33:13;;;;;;;1.88;0.80;;;;;;;15.84;59.78;99902.88;5045335;28;20067;-83
2023/10/16 01:35:57;;;;;;;3.08;0.90;;;;;;;15.77;59.92;99907.38;5041629;28;20049;-82
2023/10/16 01:38:41;;;;;;;4.22;1.00;;;;;;;16.00;59.70;99903.47;5048209;28;20098;-82
2023/10/16 01:41:26;;;;;;;1.33;0.90;;;;;;;15.82;59.51;99891.69;5042507;28;20541;-82
2023/10/16 01:44:10;;;;;;;2.55;1.15;;;;;;;15.68;60.06;99892.72;5043300;28;20418;-82
2023/10/16 01:46:55;;;;;;;1.58;0.85;;;;;;;15.90;59.44;99892.50;5046164;28;20051;-82
2023/10/16 01:49:40;;;;;;;2.33;1.10;;;;;;;16.03;59.30;99895.09;5045367;28;20049;-82
2023/10/16 01:52:25;;;;;;;2.83;1.20;;;;;;;16.23;58.70;99889.75;5045436;28;20060;-83
2023/10/16 01:55:16;;;;;;;4.70;1.02;;;;;;;15.91;59.54;99891.47;5054279;28;20148;-83
2023/10/16 01:58:02;;;;;;;1.20;1.10;;;;;;;15.80;59.84;99883.13;5066941;28;20044;-82
2023/10/16 02:00:46;;;;;;;3.53;1.15;;;;;;;15.71;60.07;99890.47;5064793;28;20101;-82
2023/10/16 02:03:30;;;;;;;1.55;0.90;;;;;;;15.92;59.53;99882.53;5055443;28;20067;-83
2023/10/16 02:06:16;;;;;;;3.08;1.20;;;;;;;15.84;59.20;99875.59;5059952;28;20067;-83
2023/10/16 02:09:00;;;;;;;3.15;1.15;;;;;;;15.91;59.29;99880.88;5062298;28;20110;-83
2023/10/16 02:11:44;;;;;;;3.92;1.00;;;;;;;15.62;59.68;99888.25;5063521;28;20075;-83
2023/10/16 02:14:28;;;;;;;2.65;1.30;;;;;;;15.52;60.09;99873.59;5062767;28;20052;-82
2023/10/16 02:17:19;;;;;;;4.30;1.10;;;;;;;15.26;60.47;99883.22;5064919;28;20461;-83
2023/10/16 02:20:11;;;;;;;2.75;1.10;;;;;;;15.13;60.88;99880.56;5062702;28;20044;-84
2023/10/16 02:22:55;;;;;;;3.00;1.30;;;;;;;15.28;61.11;99878.53;5059045;28;20079;-83
2023/10/16 02:25:39;;;;;;;4.32;1.20;;;;;;;15.30;61.20;99880.16;5059803;28;20570;-83
2023/10/16 02:28:25;;;;;;;2.85;1.20;;;;;;;15.47;60.93;99881.38;5058147;28;20043;-82
2023/10/16 02:31:13;;;;;;;2.55;1.20;;;;;;;15.47;60.65;99877.91;5052441;28;20398;-83
2023/10/16 02:34:12;;;;;;;4.75;1.10;;;;;;;15.48;60.90;99871.59;5037469;28;20052;-83
2023/10/16 02:36:56;;;;;;;4.82;1.25;;;;;;;15.61;60.40;99865.47;5038647;28;20513;-83
2023/10/16 02:39:41;;;;;;;4.13;1.52;;;;;;;15.65;60.36;99870.16;5043670;28;20036;-81
2023/10/16 02:42:26;;;;;;;3.05;1.10;;;;;;;15.75;60.42;99866.25;5049043;28;20700;-81
2023/10/16 02:45:23;;;;;;;2.78;1.10;;;;;;;15.64;60.63;99876.47;5040439;28;20390;-82
2023/10/16 02:48:09;;;;;;;1.65;1.25;;;;;;;15.79;60.03;99873.56;5043574;28;20076;-82
2023/10/16 02:50:59;;;;;;;2.58;1.10;;;;;;;15.96;59.90;99873.13;5038919;28;20053;-81
2023/10/16 02:53:44;;;;;;;1.63;1.20;;;;;;;15.55;60.60;99867.94;5038361;28;20120;-82
2023/10/16 02:56:28;;;;;;;5.07;0.93;;;;;;;15.91;59.93;99865.00;5041026;28;20037;-84
2023/10/16 02:59:12;;;;;;;1.60;1.02;;;;;;;15.94;59.78;99859.31;5043495;28;20632;-81
2023/10/16 03:01:56;;;;;;;3.35;1.00;;;;;;;15.93;59.78;99862.97;5037680;28;20051;-82
2023/10/16 03:04:40;;;;;;;3.15;1.10;;;;;;;15.73;60.40;99847.13;5045751;28;20068;-82
2023/10/16 03:07:25;;;;;;;4.25;1.38;;;;;;;15.68;60.61;99831.84;5041315;28;20043;-82
2023/10/16 03:10:10;;;;;;;1.20;1.00;;;;;;;15.83;60.12;99852.78;5043211;28;20048;-82
2023/10/16 03:12:56;;;;;;;4.88;0.90;;;;;;;15.72;60.25;99841.00;5042868;28;20105;-82
2023/10/16 03:15:47;;;;;;;2.42;1.23;;;;;;;15.79;60.52;99844.44;5044547;28;20125;-82
2023/10/16 03:18:33;;;;;;;5.35;1.13;;;;;;;15.67;60.59;99843.47;5047826;28;20139;-81
2023/10/16 03:24:01;;;;;;;2.13;1.00;;;;;;;15.48;60.99;99845.94;5042249;28;20040;-82
2023/10/16 03:26:47;;;;;;;6.78;1.13;;;;;;;15.68;60.70;99851.19;5040110;28;20051;-82
2023/10/16 03:29:35;;;;;;;1.77;1.00;;;;;;;15.51;61.00;99831.50;5040269;28;20044;-82
2023/10/16 03:32:19;;;;;;;4.18;1.52;;;;;;;15.46;61.11;99842.69;5037843;28;20047;-82
2023/10/16 03:35:05;;;;;;;4.30;1.10;;;;;;;15.03;61.84;99817.53;5042933;28;20116;-81
2023/10/16 03:37:49;;;;;;;3.55;1.33;;;;;;;15.33;61.61;99848.00;5038595;28;20056;-82
2023/10/16 03:40:33;;;;;;;2.47;1.10;;;;;;;15.52;61.18;99820.69;5041689;28;20102;-81
2023/10/16 03:43:19;;;;;;;2.13;1.08;;;;;;;15.19;61.64;99826.88;5038649;28;20120;-81
2023/10/16 03:46:03;;;;;;;1.58;1.02;;;;;;;15.67;60.75;99835.53;5038777;28;20044;-81
2023/10/16 03:48:47;;;;;;;5.03;1.40;;;;;;;15.51;61.14;99828.84;5039807;28;20087;-82
2023/10/16 03:51:31;;;;;;;3.17;1.00;;;;;;;15.80;60.19;99843.44;5039720;28;20047;-82
2023/10/16 03:54:16;;;;;;;3.80;1.23;;;;;;;15.85;60.66;99840.97;5037852;28;20052;-83
2023/10/16 03:57:00;;;;;;;5.20;1.10;;;;;;;15.42;61.11;99825.63;5048513;28;20117;-82
2023/10/16 03:59:45;;;;;;;1.52;1.10;;;;;;;15.37;61.44;99836.81;5039965;28;20064;-82
2023/10/16 04:02:31;;;;;;;6.13;2.33;;;;;;;15.27;61.40;99829.31;5041728;28;20094;-84
2023/10/16 04:05:48;;;;;;;4.72;1.63;;;;;;;15.17;61.89;99826.28;5044877;28;20118;-82
2023/10/16 04:08:26;;;;;;;4.07;1.13;;;;;;;15.18;61.81;99825.25;5044410;28;20455;-82
2023/10/16 04:11:12;;;;;;;3.88;1.00;;;;;;;15.31;61.89;99834.16;5040406;28;20651;-82
2023/10/16 04:13:56;;;;;;;6.38;1.05;;;;;;;15.51;61.58;99831.50;5038734;28;20052;-82
2023/10/16 04:16:43;;;;;;;4.00;1.10;;;;;;;15.52;61.09;99836.56;5041114;28;20124;-82
2023/10/16 04:22:16;;;;;;;3.28;1.20;;;;;;;15.27;61.71;99829.31;5038158;28;20048;-83
2023/10/16 04:25:01;;;;;;;1.95;1.10;;;;;;;15.38;61.39;99811.19;5040572;28;20124;-81
2023/10/16 04:27:49;;;;;;;5.15;1.10;;;;;;;15.43;61.24;99806.06;5042229;28;20043;-82
2023/10/16 04:30:39;;;;;;;1.40;0.90;;;;;;;15.49;61.31;99805.25;5038667;28;20052;-82
2023/10/16 04:33:48;;;;;;;2.08;1.25;;;;;;;15.38;61.22;99796.13;5034249;28;20779;-81
2023/10/16 04:45:54;;;;;;;3.60;1.20;;;;;;;16.03;60.46;99813.00;5040802;28;20122;-82
2023/10/16 04:48:54;;;;;;;3.47;1.35;;;;;;;15.82;60.27;99795.56;5039972;28;20040;-82
2023/10/16 04:51:52;;;;;;;3.20;1.15;;;;;;;16.03;60.29;99810.38;5043695;28;20506;-81
2023/10/16 04:57:47;;;;;;;2.35;1.10;;;;;;;15.66;60.60;99805.63;5044834;28;20090;-82
2023/10/16 05:15:51;;;;;;;1.55;1.38;;;;;;;15.54;60.78;99786.94;5044513;28;20578;-82
2023/10/16 05:18:51;;;;;;;3.10;1.65;;;;;;;15.40;60.90;99774.75;5040455;28;20077;-83
2023/10/16 06:16:28;;;;;;;5.28;2.22;;;;;;;14.88;63.59;99746.38;5045373;28;20115;-84
2023/10/16 06:19:17;;;;;;;3.17;2.28;;;;;;;15.07;63.74;99749.19;5039707;28;20389;-84
2023/10/16 06:22:07;;;;;;;7.30;3.05;;;;;;;15.32;63.35;99761.75;5041942;28;20103;-84
2023/10/16 06:24:52;;;;;;;4.70;2.35;;;;;;;15.23;63.10;99754.03;5041912;28;20141;-81
2023/10/16 06:27:41;;;;;;;7.03;2.85;;;;;;;15.38;63.03;99766.22;5040362;28;20098;-82
2023/10/16 06:30:25;;;;;;;5.93;2.80;;;;;;;15.24;63.10;99746.94;5044389;28;20040;-83
2023/10/16 06:33:09;;;;;;;4.55;2.80;;;;;;;14.86;64.04;99753.69;5050050;28;20047;-84
2023/10/16 06:35:54;;;;;;;3.60;2.40;;;;;;;15.10;63.76;99760.19;5054921;28;20083;-88
2023/10/16 06:38:38;;;;;;;4.72;2.90;;;;;;;14.96;64.16;99746.19;5054417;28;20051;-87
2023/10/16 06:41:22;;;;;;;7.95;2.70;;;;;;;15.24;63.94;99760.16;5054222;28;20040;-87
2023/10/16 06:44:07;;;;;;;5.32;1.75;;;;;;;15.52;63.28;99764.34;5060418;28;20048;-86
2023/10/16 06:46:58;;;;;;;6.80;2.35;;;;;;;15.31;63.35;99744.25;5053316;28;20036;-86
2023/10/16 06:49:42;;;;;;;5.68;2.65;;;;;;;15.35;63.31;99764.78;5050448;28;20101;-87
2023/10/16 06:52:26;;;;;;;4.25;1.85;;;;;;;15.54;63.39;99781.63;5043965;28;20064;-87
2023/10/16 06:55:11;;;;;;;5.32;2.97;;;;;;;15.64;62.88;99777.72;5036493;28;20582;-85
2023/10/16 06:57:55;;;;;;;6.13;2.20;;;;;;;15.67;63.23;99782.59;5041172;28;20044;-84
2023/10/16 07:00:39;;;;;;;4.85;2.33;;;;;;;15.49;63.24;99773.50;5043595;28;20044;-85
2023/10/16 07:03:23;;;;;;;4.00;1.80;;;;;;;15.46;63.11;99755.41;5044165;28;20453;-85
2023/10/16 07:06:07;;;;;;;5.53;1.58;;;;;;;15.71;62.81;99765.25;5038109;28;20460;-84
2023/10/16 07:08:52;;;;;;;4.40;1.40;;;;;;;15.69;62.92;99777.91;5039979;28;20079;-84
2023/10/16 07:11:42;;;;;;;1.60;1.42;;;;;;;15.71;62.97;99775.84;5044199;28;20084;-80
2023/10/16 07:14:26;;;;;;;5.55;2.15;;;;;;;15.84;62.17;99765.22;5040811;28;20155;-84
2023/10/16 07:17:13;;;;;;;10.93;2.05;;;;;;;16.06;61.92;99780.81;5038179;28;20512;-83
2023/10/16 07:19:59;;;;;;;5.25;1.65;;;;;;;15.94;61.43;99766.63;5037943;28;20132;-83
2023/10/16 07:22:44;;;;;;;7.15;1.60;;;;;;;16.01;61.72;99777.16;5040508;28;20035;-82
2023/10/16 07:25:47;;;;;;;5.47;1.75;;;;;;;15.89;61.83;99782.31;5044757;28;20048;-80
2023/10/16 07:28:32;;;;;;;10.07;1.63;;;;;;;15.78;62.17;99776.66;5039537;28;20048;-82
2023/10/16 07:31:16;;;;;;;3.30;1.50;;;;;;;16.15;61.55;99783.22;5039897;28;20071;-81
2023/10/16 07:34:04;;;;;;;4.97;1.35;;;;;;;16.09;61.52;99782.22;5042125;28;20135;-83
2023/10/16 07:36:55;;;;;;;5.38;1.50;;;;;;;15.94;62.06;99764.00;5041471;28;20506;-85
2023/10/16 07:39:39;;;;;;;5.15;1.83;;;;;;;16.05;61.87;99775.75;5044227;28;20060;-84
2023/10/16 07:42:24;;;;;;;1.73;1.40;;;;;;;16.15;61.83;99770.78;5047434;28;20032;-84
2023/10/16 07:45:08;;;;;;;3.35;2.05;;;;;;;16.29;61.37;99776.78;5043967;28;20101;-86
2023/10/16 07:47:52;;;;;;;5.40;1.42;;;;;;;17.05;60.86;99774.19;5043376;28;20571;-85
2023/10/16 07:50:38;;;;;;;6.18;1.30;;;;;;;16.65;61.43;99769.22;5035835;28;20634;-84
2023/10/16 07:53:24;;;;;;;2.75;1.42;;;;;;;16.60;61.21;99767.22;5044072;28;20095;-86
2023/10/16 07:59:18;;;;;;;5.05;2.10;;;;;;;17.19;61.34;99758.13;5047209;28;20051;-86
2023/10/16 08:02:08;;;;;;;3.78;2.05;;;;;;;17.21;61.26;99756.88;5038013;28;20048;-87
2023/10/16 08:04:51;;;;;;;3.88;1.80;;;;;;;17.78;61.01;99761.13;5038083;28;20094;-86
2023/10/16 08:07:48;;;;;;;4.97;2.40;;;;;;;17.67;61.01;99759.22;5040373;28;20040;-87
2023/10/16 08:10:42;;;;;;;4.47;2.08;;;;;;;17.88;60.97;99754.44;5041934;28;20450;-87
2023/10/16 08:13:27;;;;;;;7.80;2.50;;;;;;;18.11;60.51;99767.88;5040137;28;20532;-86
2023/10/16 08:16:11;;;;;;;4.40;2.95;;;;;;;18.34;60.29;99768.97;5039853;28;20094;-87
2023/10/16 08:18:57;;;;;;;10.95;4.00;;;;;;;18.91;59.46;99757.00;5037615;28;20398;-86
2023/10/16 08:21:42;;;;;;;7.07;4.38;;;;;;;18.59;59.97;99754.66;5043267;28;20047;-85
2023/10/16 08:24:28;;;;;;;7.28;5.15;;;;;;;18.83;59.81;99762.63;5042071;28;20399;-87
2023/10/16 08:27:22;;;;;;;9.65;5.50;;;;;;;18.76;59.44;99757.44;5042434;28;20063;-85
2023/10/16 08:33:11;;;;;;;5.63;3.90;;;;;;;18.33;59.89;99756.72;5040126;28;20044;-86
2023/10/16 08:35:58;;;;;;;5.80;4.22;;;;;;;18.61;59.54;99757.88;5042244;28;20052;-86
2023/10/16 08:38:51;;;;;;;7.80;4.45;;;;;;;18.91;59.10;99751.66;5044235;28;20056;-87
2023/10/16 08:41:42;;;;;;;5.85;4.22;;;;;;;18.93;58.79;99754.91;5046836;28;20044;-87
2023/10/16 08:44:31;;;;;;;6.65;4.05;;;;;;;18.84;58.98;99756.28;5038552;28;20048;-87
2023/10/16 08:47:20;;;;;;;8.70;4.68;;;;;;;19.01;58.95;99761.75;5043393;28;20047;-86
2023/10/16 08:50:17;;;;;;;7.13;4.03;;;;;;;19.29;58.36;99767.41;5039078;28;20116;-87
2023/10/16 08:53:05;;;;;;;9.38;4.85;;;;;;;19.33;58.39;99764.00;5044810;28;20071;-86
2023/10/16 08:55:50;;;;;;;6.78;4.53;;;;;;;18.98;58.63;99757.69;5042544;28;20056;-85
2023/10/16 08:58:39;;;;;;;7.57;4.80;;;;;;;18.95;58.79;99755.47;5041527;28;20040;-85
2023/10/16 09:01:28;;;;;;;9.30;6.00;;;;;;;19.00;58.86;99765.47;5038662;28;20045;-87
2023/10/16 09:04:14;;;;;;;10.15;5.80;;;;;;;19.31;58.35;99765.31;5040852;28;20087;-88
2023/10/16 09:06:58;;;;;;;8.40;6.25;;;;;;;19.08;58.90;99762.44;5042065;28;20132;-87
2023/10/16 09:09:43;;;;;;;9.20;6.22;;;;;;;19.29;57.96;99757.53;5044263;28;20040;-88
2023/10/16 09:12:28;;;;;;;9.77;5.13;;;;;;;19.30;58.26;99758.38;5040048;28;20094;-85
2023/10/16 09:15:15;;;;;;;7.45;3.25;;;;;;;19.44;57.88;99765.03;5040295;28;20493;-87
2023/10/16 09:17:59;;;;;;;3.60;2.33;;;;;;;19.67;57.74;99758.84;5043221;28;20041;-86
2023/10/16 09:20:43;;;;;;;4.20;2.03;;;;;;;20.09;57.23;99764.94;5042861;28;20044;-87
2023/10/16 09:23:36;;;;;;;4.45;1.80;;;;;;;20.89;55.27;99762.25;5043802;28;20091;-86
2023/10/16 09:26:24;;;;;;;9.57;3.25;;;;;;;20.44;55.08;99755.09;5043280;28;20052;-86
2023/10/16 09:29:15;;;;;;;5.50;2.50;;;;;;;20.67;54.82;99760.28;5044644;28;20040;-88
2023/10/16 09:32:02;;;;;;;4.15;1.73;;;;;;;20.73;54.61;99755.03;5042919;28;20052;-86
2023/10/16 09:34:51;;;;;;;4.78;1.50;;;;;;;21.00;54.12;99763.19;5045470;28;20047;-86
2023/10/16 09:37:35;;;;;;;3.53;1.67;;;;;;;20.63;54.76;99764.47;5042732;28;20414;-87
2023/10/16 09:40:19;;;;;;;5.90;1.50;;;;;;;20.51;54.84;99761.09;5041379;28;20128;-87
2023/10/16 09:43:06;;;;;;;3.33;1.40;;;;;;;20.40;54.50;99755.59;5042841;28;20072;-86
2023/10/16 09:46:21;;;;;;;3.35;2.00;;;;;;;20.33;55.05;99762.97;5041773;28;20192;-85
2023/10/16 09:48:56;;;;;;;2.50;1.63;;;;;;;20.88;54.86;99768.63;5041292;28;20501;-86
2023/10/16 09:51:46;;;;;;;5.80;1.35;;;;;;;20.63;54.19;99764.47;5035979;28;20560;-85
2023/10/16 09:54:31;;;;;;;4.00;1.40;;;;;;;20.67;54.03;99754.97;5036925;28;20041;-86
2023/10/16 09:57:27;;;;;;;2.25;1.33;;;;;;;20.72;54.09;99756.09;5037142;28;20093;-87
2023/10/16 10:03:14;;;;;;;3.05;1.70;;;;;;;20.95;53.16;99761.25;5039372;28;20136;-84
2023/10/16 10:06:08;;;;;;;2.47;1.50;;;;;;;21.16;53.28;99742.84;5043499;28;20036;-85
2023/10/16 10:12:42;;;;;;;7.05;1.70;;;;;;;21.67;52.51;99748.00;5046090;28;20063;-87
2023/10/16 10:15:30;;;;;;;4.65;1.60;;;;;;;22.43;52.05;99747.34;5050122;28;20059;-86
2023/10/16 10:18:42;;;;;;;5.72;1.83;;;;;;;22.05;51.50;99733.94;5043432;28;20040;-87
2023/10/16 10:21:30;;;;;;;5.03;1.90;;;;;;;22.36;51.26;99748.34;5046231;28;20174;-86
2023/10/16 10:24:15;;;;;;;6.40;2.88;;;;;;;22.92;50.66;99743.69;5046868;28;20063;-84
2023/10/16 10:27:03;;;;;;;3.08;1.67;;;;;;;22.65;50.27;99753.44;5042996;28;20043;-86
2023/10/16 10:29:51;;;;;;;3.25;2.20;;;;;;;22.59;51.02;99735.72;5046192;28;20499;-85
2023/10/16 10:32:37;;;;;;;6.63;2.97;;;;;;;22.44;51.17;99751.63;5042426;28;20040;-85
2023/10/16 10:35:38;;;;;;;4.18;2.70;;;;;;;22.41;50.62;99752.94;5045049;28;20068;-85
2023/10/16 10:38:26;;;;;;;5.30;2.45;;;;;;;22.56;49.50;99744.25;5039081;28;20047;-85
2023/10/16 10:41:10;;;;;;;4.63;2.30;;;;;;;22.86;49.55;99750.88;5043256;28;20044;-85
2023/10/16 10:44:08;;;;;;;5.18;2.42;;;;;;;23.04;50.28;99748.84;5036716;28;20103;-87
2023/10/16 10:46:53;;;;;;;4.32;2.80;;;;;;;23.13;49.72;99752.63;5047446;28;20036;-85
2023/10/16 10:49:37;;;;;;;6.75;2.80;;;;;;;23.28;50.48;99748.44;5040404;28;20556;-85
2023/10/16 10:52:21;;;;;;;7.25;2.90;;;;;;;22.81;50.46;99743.63;5039269;28;20049;-85
2023/10/16 10:55:18;;;;;;;4.95;2.70;;;;;;;23.04;50.36;99738.91;5046997;28;20043;-84
2023/10/16 10:58:11;;;;;;;4.90;2.90;;;;;;;23.06;50.06;99741.34;5044959;28;20124;-85
2023/10/16 11:01:02;;;;;;;;;;;;;;;23.39;50.19;99740.16;5047313;28;20044;-84
2023/10/16 11:03:47;;;;;;;5.25;2.80;;;;;;;23.09;50.05;99730.09;5042782;28;19959;-86
2023/10/16 11:06:42;;;;;;;6.80;2.63;;;;;;;23.16;49.25;99725.31;5039869;28;20052;-85
2023/10/16 11:09:32;;;;;;;4.40;2.63;;;;;;;23.37;49.81;99742.31;5043817;28;20125;-86
2023/10/16 11:12:17;;;;;;;4.72;2.70;;;;;;;23.35;49.88;99738.25;5045467;28;20450;-84
2023/10/16 11:15:05;;;;;;;3.92;2.80;;;;;;;23.53;49.03;99739.69;5039651;28;20052;-83
2023/10/16 11:17:52;;;;;;;7.97;3.17;;;;;;;22.91;49.17;99724.13;5043817;28;20045;-84
2023/10/16 11:20:36;;;;;;;6.10;3.22;;;;;;;23.43;49.53;99719.03;5041323;28;20114;-84
2023/10/16 11:23:21;;;;;;;9.25;5.45;;;;;;;23.13;49.00;99704.41;5040369;28;20040;-84
2023/10/16 11:26:07;;;;;;;9.35;3.40;;;;;;;23.27;49.53;99706.66;5042151;28;20031;-86
2023/10/16 11:28:51;;;;;;;7.60;3.25;;;;;;;23.76;48.21;99706.22;5044988;28;20098;-85
2023/10/16 11:31:40;;;;;;;5.32;3.20;;;;;;;24.13;48.68;99711.63;5039202;28;20539;-87
2023/10/16 11:34:26;;;;;;;7.20;4.15;;;;;;;23.35;48.72;99684.69;5040624;28;20075;-86
2023/10/16 11:37:12;;;;;;;8.65;3.70;;;;;;;23.91;48.58;99702.75;5042949;28;20068;-86
2023/10/16 11:39:58;;;;;;;9.48;3.67;;;;;;;23.99;48.08;99704.13;5045014;28;20549;-88
2023/10/16 11:42:42;;;;;;;8.40;3.30;;;;;;;23.56;48.58;99698.97;5037392;28;20510;-88
2023/10/16 11:45:30;;;;;;;5.88;2.90;;;;;;;23.48;49.02;99702.13;5041457;28;20501;-85
2023/10/16 11:51:18;;;;;;;7.67;2.57;;;;;;;24.09;47.92;99696.09;5038749;28;20395;-86
2023/10/16 11:54:02;;;;;;;4.65;2.80;;;;;;;24.01;47.70;99688.56;5040372;28;20051;-84
2023/10/16 11:56:48;;;;;;;3.92;3.20;;;;;;;24.63;47.03;99690.38;5041478;28;20430;-85
2023/10/16 11:59:32;;;;;;;4.97;3.30;;;;;;;23.91;47.58;99693.91;5039165;28;20047;-86
2023/10/16 12:02:18;;;;;;;4.65;2.92;;;;;;;23.62;47.59;99695.22;5037175;28;20040;-86
2023/10/16 12:05:05;;;;;;;5.68;3.20;;;;;;;23.15;48.37;99694.25;5034928;28;20047;-87
2023/10/16 12:07:49;;;;;;;4.80;2.97;;;;;;;23.33;48.04;99692.19;5036743;28;20056;-84
2023/10/16 12:10:33;;;;;;;5.80;2.75;;;;;;;23.75;48.76;99690.41;5036234;28;20100;-84
2023/10/16 12:13:17;;;;;;;6.07;3.75;;;;;;;23.81;48.11;99674.06;5038712;28;20040;-85
2023/10/16 12:16:01;;;;;;;5.03;4.03;;;;;;;23.96;48.57;99688.53;5045262;28;20144;-85
2023/10/16 12:18:47;;;;;;;11.13;7.68;;;;;;;23.75;47.75;99685.84;5035369;28;20053;-84
2023/10/16 12:21:31;;;;;;;14.23;7.72;;;;;;;23.85;47.80;99679.69;5037277;28;20048;-85
2023/10/16 12:24:16;;;;;;;;;;;;;;;23.94;47.95;99688.81;5041772;28;20048;-85
2023/10/16 12:27:03;;;;;;;12.25;7.97;;;;;;;23.34;47.76;99683.91;5041843;28;19923;-83
2023/10/16 12:29:47;;;;;;;12.63;7.15;;;;;;;23.24;48.34;99668.59;5038126;28;20087;-86
2023/10/16 12:32:34;;;;;;;10.55;6.93;;;;;;;24.00;46.70;99678.09;5040857;28;20104;-85
2023/10/16 12:35:18;;;;;;;18.15;9.50;;;;;;;23.74;47.46;99665.47;5037580;28;20113;-85
2023/10/16 12:38:06;;;;;;;11.75;6.10;;;;;;;23.31;47.77;99662.19;5045234;28;20422;-85
2023/10/16 12:40:56;;;;;;;5.50;4.57;;;;;;;23.44;47.28;99675.09;5039883;28;20042;-85
2023/10/16 12:43:40;;;;;;;8.75;4.40;;;;;;;23.75;47.14;99667.09;5043803;28;20040;-83
2023/10/16 12:46:25;;;;;;;6.88;4.13;;;;;;;23.47;47.25;99669.19;5052615;28;20167;-83
2023/10/16 12:49:10;;;;;;;6.63;4.53;;;;;;;23.13;47.21;99658.91;5049351;28;20036;-83
2023/10/16 12:51:54;;;;;;;7.57;4.88;;;;;;;23.29;47.18;99664.34;5048306;28;20052;-83
2023/10/16 12:54:43;;;;;;;21.02;10.98;;;;;;;22.96;47.32;99651.09;5037998;28;20052;-83
2023/10/16 12:57:28;;;;;;;7.03;4.60;;;;;;;23.13;47.28;99652.75;5041638;28;20544;-83
2023/10/16 13:00:17;;;;;;;20.08;10.05;;;;;;;23.33;46.89;99660.06;5048651;28;20048;-83
2023/10/16 13:03:07;;;;;;;15.95;9.15;;;;;;;23.00;47.16;99643.34;5041648;28;20043;-83
2023/10/16 13:05:52;;;;;;;9.02;5.63;;;;;;;23.38;46.76;99652.03;5040799;28;20037;-83
2023/10/16 13:08:36;;;;;;;8.73;5.38;;;;;;;23.35;47.44;99639.16;5046806;28;20066;-83
2023/10/16 13:11:20;;;;;;;11.38;5.85;;;;;;;23.70;46.52;99642.97;5042223;28;20076;-84
2023/10/16 13:14:05;;;;;;;10.02;5.57;;;;;;;23.14;47.58;99651.69;5043969;28;20094;-83
2023/10/16 13:16:57;;;;;;;9.60;7.38;;;;;;;23.71;47.07;99649.13;5040858;28;20103;-83
2023/10/16 13:19:41;;;;;;;9.80;5.85;;;;;;;23.53;47.43;99640.53;5041826;28;20168;-83
2023/10/16 13:22:25;;;;;;;11.30;6.20;;;;;;;23.47;47.31;99642.41;5042389;28;20617;-83
2023/10/16 13:25:12;;;;;;;8.00;5.25;;;;;;;23.19;47.24;99643.66;5040016;28;20095;-84
2023/10/16 13:27:58;;;;;;;8.52;4.60;;;;;;;22.77;47.44;99621.28;5037251;28;20052;-83
2023/10/16 13:30:42;;;;;;;10.50;4.60;;;;;;;22.65;47.55;99624.19;5042157;28;20384;-83
2023/10/16 13:33:28;;;;;;;6.88;4.72;;;;;;;23.12;46.73;99625.16;5041945;28;20036;-82
2023/10/16 13:36:12;;;;;;;7.05;4.18;;;;;;;23.02;47.34;99633.16;5045946;28;20516;-83
2023/10/16 13:38:56;;;;;;;7.25;4.47;;;;;;;23.38;47.18;99609.97;5046349;28;20048;-83
2023/10/16 13:41:50;;;;;;;12.65;4.68;;;;;;;22.75;47.22;99610.03;5046072;28;20056;-82
2023/10/16 13:44:37;;;;;;;;;;;;;;;22.68;47.43;99624.47;5053163;28;20044;-82
2023/10/16 13:47:21;;;;;;;7.55;3.70;;;;;;;22.55;46.99;99598.19;5047747;28;19928;-82
2023/10/16 13:50:09;;;;;;;5.75;3.42;;;;;;;22.40;46.57;99612.25;5054342;28;20039;-82
2023/10/16 13:52:54;;;;;;;7.97;3.70;;;;;;;22.34;47.47;99602.59;5048509;28;20071;-82
2023/10/16 13:55:38;;;;;;;6.65;3.25;;;;;;;22.26;46.86;99595.88;5052942;28;20098;-82
2023/10/16 13:58:22;;;;;;;5.72;3.78;;;;;;;22.85;46.63;99610.09;5051317;28;20069;-82
2023/10/16 14:01:09;;;;;;;6.13;3.40;;;;;;;22.70;46.82;99588.63;5042643;28;20120;-82
2023/10/16 14:03:54;;;;;;;9.52;5.80;;;;;;;22.66;46.79;99596.34;5043179;28;20446;-82
2023/10/16 14:06:40;;;;;;;12.35;9.60;;;;;;;23.06;46.09;99597.56;5048817;28;20047;-83
2023/10/16 14:09:27;;;;;;;6.40;3.92;;;;;;;22.64;46.18;99569.88;5048898;28;20450;-83
2023/10/16 14:12:17;;;;;;;7.65;5.10;;;;;;;22.72;45.85;99581.94;5043703;28;20064;-82
2023/10/16 14:15:01;;;;;;;8.48;4.35;;;;;;;22.20;46.46;99570.97;5047585;28;20083;-82
2023/10/16 14:17:47;;;;;;;4.78;3.20;;;;;;;23.03;46.10;99592.72;5044544;28;20577;-81
2023/10/16 14:20:34;;;;;;;4.30;2.53;;;;;;;22.80;45.41;99575.28;5045063;28;20518;-82
2023/10/16 14:23:24;;;;;;;4.22;2.72;;;;;;;22.79;44.68;99570.97;5049838;28;20421;-82
2023/10/16 14:26:11;;;;;;;4.32;3.13;;;;;;;22.87;45.10;99573.16;5049721;28;20041;-83
2023/10/16 14:28:59;;;;;;;4.32;2.70;;;;;;;22.46;45.31;99559.59;5050033;28;20157;-82
2023/10/16 14:31:46;;;;;;;6.50;3.17;;;;;;;22.70;45.90;99554.66;5049286;28;20099;-84
2023/10/16 14:34:30;;;;;;;5.80;3.10;;;;;;;22.49;46.09;99562.56;5045679;28;20403;-83
2023/10/16 14:37:15;;;;;;;4.18;3.00;;;;;;;22.30;46.67;99564.88;5048132;28;20049;-83
2023/10/16 14:39:59;;;;;;;5.47;3.05;;;;;;;23.02;45.20;99575.06;5043062;28;20035;-81
2023/10/16 14:42:43;;;;;;;4.90;2.78;;;;;;;22.85;45.91;99561.91;5049652;28;20075;-82
2023/10/16 14:45:28;;;;;;;4.97;3.20;;;;;;;22.14;45.85;99550.63;5043157;28;20044;-82
2023/10/16 14:48:12;;;;;;;3.67;3.22;;;;;;;22.25;46.52;99546.94;5041980;28;20097;-82
2023/10/16 14:50:57;;;;;;;5.38;3.72;;;;;;;22.15;46.99;99546.06;5044005;28;20059;-82